createdAt,value
2023-02-14T00:00:10.087Z,-0.9
2023-02-14T00:05:10.097Z,-0.8
2023-02-14T00:10:10.088Z,-0.7
2023-02-14T00:15:10.099Z,-0.6
2023-02-14T00:20:10.087Z,-0.6
2023-02-14T00:25:10.091Z,-0.5
2023-02-14T00:30:10.186Z,-0.5
2023-02-14T00:35:10.112Z,-0.4
2023-02-14T00:40:10.092Z,-0.4
2023-02-14T00:45:10.096Z,-0.4
2023-02-14T00:50:10.097Z,-0.4
2023-02-14T00:55:10.099Z,-0.4
2023-02-14T01:00:10.113Z,-0.4
2023-02-14T01:05:10.090Z,-0.3
2023-02-14T01:10:10.131Z,-0.3
2023-02-14T01:15:10.110Z,-0.3
2023-02-14T01:20:10.086Z,-0.3
2023-02-14T01:25:10.102Z,-0.3
2023-02-14T01:30:10.145Z,-0.3
2023-02-14T01:35:10.103Z,-0.3
2023-02-14T01:40:10.090Z,-0.3
2023-02-14T01:45:10.110Z,-0.3
2023-02-14T01:50:10.098Z,-0.3
2023-02-14T01:55:10.121Z,-0.3
2023-02-14T02:00:10.100Z,-0.4
2023-02-14T02:05:10.112Z,-0.4
2023-02-14T02:10:10.110Z,-0.5
2023-02-14T02:15:10.100Z,-0.5
2023-02-14T02:20:10.105Z,-0.6
2023-02-14T02:25:10.105Z,-0.6
2023-02-14T02:30:10.168Z,-0.6
2023-02-14T02:35:10.115Z,-0.6
2023-02-14T02:40:10.114Z,-0.6
2023-02-14T02:45:10.108Z,-0.6
2023-02-14T02:50:10.102Z,-0.6
2023-02-14T02:55:10.112Z,-0.5
2023-02-14T03:00:10.102Z,-0.5
2023-02-14T03:05:10.152Z,-0.4
2023-02-14T03:10:10.116Z,-0.5
2023-02-14T03:15:10.110Z,-0.5
2023-02-14T03:20:10.110Z,-0.5
2023-02-14T03:25:10.113Z,-0.5
2023-02-14T03:30:10.166Z,-0.4
2023-02-14T03:35:10.103Z,-0.4
2023-02-14T03:40:10.099Z,-0.4
2023-02-14T03:45:10.163Z,-0.4
2023-02-14T03:50:10.114Z,-0.4
2023-02-14T03:55:10.102Z,-0.3
2023-02-14T04:00:10.115Z,-0.3
2023-02-14T04:05:10.106Z,-0.3
2023-02-14T04:10:10.105Z,-0.3
2023-02-14T04:15:10.107Z,-0.3
2023-02-14T04:20:10.094Z,-0.3
2023-02-14T04:25:10.102Z,-0.2
2023-02-14T04:30:10.160Z,-0.2
2023-02-14T04:35:10.107Z,-0.2
2023-02-14T04:40:10.110Z,-0.2
2023-02-14T04:45:10.110Z,-0.2
2023-02-14T04:50:10.105Z,-0.2
2023-02-14T04:55:10.114Z,-0.1
2023-02-14T05:00:10.101Z,-0.1
2023-02-14T05:05:10.113Z,-0.1
2023-02-14T05:10:10.100Z,-0.1
2023-02-14T05:15:10.096Z,-0.2
2023-02-14T05:20:10.119Z,-0.2
2023-02-14T05:25:10.093Z,-0.2
2023-02-14T05:30:10.230Z,-0.2
2023-02-14T05:35:10.096Z,-0.2
2023-02-14T05:40:10.102Z,-0.3
2023-02-14T05:45:10.110Z,-0.3
2023-02-14T05:50:10.099Z,-0.3
2023-02-14T05:55:10.102Z,-0.3
2023-02-14T06:00:10.095Z,-0.3
2023-02-14T06:05:10.100Z,-0.3
2023-02-14T06:10:10.119Z,-0.4
2023-02-14T06:15:10.112Z,-0.4
2023-02-14T06:20:10.106Z,-0.3
2023-02-14T06:25:10.106Z,-0.3
2023-02-14T06:30:10.226Z,-0.3
2023-02-14T06:35:10.111Z,-0.3
2023-02-14T06:40:10.130Z,-0.3
2023-02-14T06:45:10.115Z,-0.2
2023-02-14T06:50:10.100Z,-0.2
2023-02-14T06:55:10.108Z,-0.2
2023-02-14T07:00:10.255Z,-0.2
2023-02-14T07:05:10.111Z,-0.2
2023-02-14T07:10:10.116Z,-0.2
2023-02-14T07:15:10.095Z,-0.2
2023-02-14T07:20:10.103Z,-0.1
2023-02-14T07:25:10.108Z,-0.1
2023-02-14T07:30:10.192Z,-0.1
2023-02-14T07:35:10.126Z,-0.1
2023-02-14T07:40:14.486Z,-0.1
2023-02-14T07:45:20.995Z,-0.1
2023-02-14T07:50:10.098Z,-0.1
2023-02-14T07:55:10.103Z,-0.1
2023-02-14T08:00:10.097Z,0.1
2023-02-14T08:05:10.180Z,0.1
2023-02-14T08:10:12.046Z,0.1
2023-02-14T08:15:10.108Z,0.1
2023-02-14T08:20:10.110Z,0.2
2023-02-14T08:25:10.099Z,0.2
2023-02-14T08:30:10.170Z,0.2
2023-02-14T08:35:10.101Z,0.3
2023-02-14T08:40:10.084Z,0.3
2023-02-14T08:45:10.101Z,0.3
2023-02-14T08:50:10.097Z,0.2
2023-02-14T08:55:10.112Z,0.3
2023-02-14T09:00:10.102Z,0.4
2023-02-14T09:05:10.140Z,0.4
2023-02-14T09:10:10.098Z,0.3
2023-02-14T09:15:10.195Z,0.3
2023-02-14T09:20:10.117Z,0.3
2023-02-14T09:25:10.108Z,0.3
2023-02-14T09:30:10.207Z,0.4
2023-02-14T09:35:10.101Z,0.4
2023-02-14T09:40:10.099Z,0.5
2023-02-14T09:45:10.097Z,0.5
2023-02-14T09:50:10.157Z,0.4
2023-02-14T09:55:10.114Z,0.5
2023-02-14T10:00:10.099Z,0.4
2023-02-14T10:05:10.094Z,0.5
2023-02-14T10:10:10.086Z,0.5
2023-02-14T10:15:10.109Z,0.5
2023-02-14T10:20:10.097Z,0.6
2023-02-14T10:25:10.104Z,0.5
2023-02-14T10:30:10.185Z,0.5
2023-02-14T10:35:10.108Z,0.7
2023-02-14T10:40:10.139Z,0.7
2023-02-14T10:45:10.103Z,0.8
2023-02-14T10:50:10.114Z,0.7
2023-02-14T10:55:10.461Z,0.6
2023-02-14T11:00:10.096Z,0.8
2023-02-14T11:05:10.116Z,0.8
2023-02-14T11:10:10.095Z,0.8
2023-02-14T11:15:10.108Z,0.9
2023-02-14T11:20:10.105Z,0.8
2023-02-14T11:25:10.115Z,0.9
2023-02-14T11:30:10.129Z,0.8
2023-02-14T11:35:10.108Z,0.5
2023-02-14T11:40:10.101Z,0.5
2023-02-14T11:45:10.096Z,0.5
2023-02-14T11:50:10.102Z,0.6
2023-02-14T11:55:10.100Z,0.7
2023-02-14T12:00:10.103Z,0.7
2023-02-14T12:05:10.105Z,0.6
2023-02-14T12:10:10.112Z,0.7
2023-02-14T12:15:10.107Z,0.7
2023-02-14T12:20:10.103Z,0.7
2023-02-14T12:25:10.100Z,0.7
2023-02-14T12:30:10.135Z,0.8
2023-02-14T12:35:10.098Z,0.8
2023-02-14T12:40:10.092Z,0.8
2023-02-14T12:45:10.090Z,0.8
2023-02-14T12:50:10.101Z,0.8
2023-02-14T12:55:10.101Z,0.9
2023-02-14T13:00:10.094Z,0.8
2023-02-14T13:05:10.101Z,0.8
2023-02-14T13:10:10.100Z,0.9
2023-02-14T13:15:10.105Z,0.9
2023-02-14T13:20:10.101Z,0.9
2023-02-14T13:25:10.100Z,0.8
2023-02-14T13:30:10.199Z,0.8
2023-02-14T13:35:10.102Z,0.7
2023-02-14T13:40:10.092Z,0.8
2023-02-14T13:45:10.101Z,0.8
2023-02-14T13:50:10.089Z,0.9
2023-02-14T13:55:10.107Z,1
2023-02-14T14:00:10.089Z,1
2023-02-14T14:05:10.083Z,0.9
2023-02-14T14:10:10.090Z,1
2023-02-14T14:15:10.099Z,1
2023-02-14T14:20:10.089Z,1
2023-02-14T14:25:10.108Z,1
2023-02-14T14:30:10.101Z,0.9
2023-02-14T14:35:10.090Z,0.9
2023-02-14T14:40:10.089Z,0.8
2023-02-14T14:45:10.092Z,1
2023-02-14T14:50:10.108Z,1.1
2023-02-14T14:55:10.098Z,1
2023-02-14T15:00:10.263Z,1
2023-02-14T15:05:10.107Z,1
2023-02-14T15:10:10.179Z,1
2023-02-14T15:15:10.147Z,1.1
2023-02-14T15:20:10.204Z,1
2023-02-14T15:25:10.113Z,1.1
2023-02-14T15:30:10.278Z,1.1
2023-02-14T15:35:10.113Z,1.1
2023-02-14T15:40:10.121Z,1.2
2023-02-14T15:45:10.109Z,1.2
2023-02-14T15:50:10.157Z,1.2
2023-02-14T15:55:10.107Z,1.2
2023-02-14T16:00:10.104Z,1.2
2023-02-14T16:05:10.110Z,1.1
2023-02-14T16:10:10.100Z,1.1
2023-02-14T16:15:10.096Z,1
2023-02-14T16:20:10.107Z,1
2023-02-14T16:25:10.100Z,1
2023-02-14T16:30:10.140Z,1
2023-02-14T16:35:10.099Z,1
2023-02-14T16:40:10.115Z,1
2023-02-14T16:45:10.096Z,1
2023-02-14T16:50:10.100Z,1
2023-02-14T16:55:10.125Z,1
2023-02-14T17:00:10.104Z,1
2023-02-14T17:05:10.100Z,1
2023-02-14T17:10:10.102Z,1
2023-02-14T17:15:10.108Z,1
2023-02-14T17:20:10.088Z,1
2023-02-14T17:25:10.098Z,1
2023-02-14T17:30:10.133Z,1
2023-02-14T17:35:10.104Z,1
2023-02-14T17:40:10.102Z,1
2023-02-14T17:45:10.111Z,1
2023-02-14T17:50:10.108Z,1
2023-02-14T17:55:10.116Z,1
2023-02-14T18:00:11.704Z,1
2023-02-14T18:05:10.100Z,0.9
2023-02-14T18:10:10.116Z,0.8
2023-02-14T18:15:10.103Z,0.9
2023-02-14T18:20:10.102Z,0.8
2023-02-14T18:25:10.114Z,0.7
2023-02-14T18:30:10.114Z,0.7
2023-02-14T18:35:10.120Z,0.6
2023-02-14T18:40:11.153Z,0.5
2023-02-14T18:45:10.110Z,0.5
2023-02-14T18:50:10.098Z,0.5
2023-02-14T18:55:10.101Z,0.5
2023-02-14T19:00:10.104Z,0.5
2023-02-14T19:05:10.110Z,0.5
2023-02-14T19:10:10.093Z,0.6
2023-02-14T19:15:10.110Z,0.6
2023-02-14T19:20:10.098Z,0.6
2023-02-14T19:25:10.105Z,0.6
2023-02-14T19:30:10.119Z,0.6
2023-02-14T19:35:10.120Z,0.6
2023-02-14T19:40:10.094Z,0.6
2023-02-14T19:45:10.105Z,0.5
2023-02-14T19:50:10.104Z,0.4
2023-02-14T19:55:10.101Z,0.4
2023-02-14T20:00:10.103Z,0.4
2023-02-14T20:05:10.126Z,0.5
2023-02-14T20:10:10.087Z,0.5
2023-02-14T20:15:11.022Z,0.5
2023-02-14T20:20:10.108Z,0.5
2023-02-14T20:25:10.108Z,0.5
2023-02-14T20:30:10.168Z,0.4
2023-02-14T20:35:10.105Z,0.4
2023-02-14T20:40:10.098Z,0.4
2023-02-14T20:45:10.095Z,0.4
2023-02-14T20:50:10.119Z,0.4
2023-02-14T20:55:10.097Z,0.4
2023-02-14T21:00:10.094Z,0.4
2023-02-14T21:05:10.100Z,0.4
2023-02-14T21:10:10.099Z,0.4
2023-02-14T21:15:10.106Z,0.5
2023-02-14T21:20:10.101Z,0.5
2023-02-14T21:25:10.094Z,0.5
2023-02-14T21:30:10.151Z,0.5
2023-02-14T21:35:10.104Z,0.5
2023-02-14T21:40:10.101Z,0.5
2023-02-14T21:45:10.111Z,0.5
2023-02-14T21:50:10.101Z,0.5
2023-02-14T21:55:10.259Z,0.4
2023-02-14T22:00:10.096Z,0.4
2023-02-14T22:05:10.115Z,0.4
2023-02-14T22:10:10.101Z,0.4
2023-02-14T22:15:10.122Z,0.4
2023-02-14T22:20:10.103Z,0.3
2023-02-14T22:25:10.101Z,0.3
2023-02-14T22:30:10.183Z,0.3
2023-02-14T22:35:10.100Z,0.3
2023-02-14T22:40:10.125Z,0.2
2023-02-14T22:45:10.122Z,0.2
2023-02-14T22:50:10.106Z,0.2
2023-02-14T22:55:10.100Z,0.2
2023-02-14T23:00:10.105Z,0.2
2023-02-14T23:05:10.112Z,0.2
2023-02-14T23:10:10.094Z,0.2
2023-02-14T23:15:10.099Z,0.1
2023-02-14T23:20:10.092Z,0.1
2023-02-14T23:25:10.118Z,0.2
2023-02-14T23:30:10.132Z,0.2
2023-02-14T23:35:10.108Z,0.2
2023-02-14T23:40:10.114Z,0.1
2023-02-14T23:45:10.120Z,0.1
2023-02-14T23:50:10.110Z,0.1
2023-02-14T23:55:10.122Z,0.1
